Time;durP1;ratioP1;P1;durP2;ratioP2;P2;SDS_P1;SDS_P2;PMS_P1;PMS_P2;Temp;Humidity;BMP_temperature;BMP_pressure;BME280_temperature;BME280_humidity;BME280_pressure;Samples;Min_cycle;Max_cycle;Signal;HPM_P1;HPM_P2
2021/10/20 00:01:37;;;;;;;;;42.33;40.00;;;;;5.16;60.00;102367.63;4902876;29;11630;-69
2021/10/20 00:04:32;;;;;;;;;39.00;39.00;;;;;5.10;60.02;102370.53;4915668;29;12393;-68
2021/10/20 00:07:28;;;;;;;;;36.00;36.00;;;;;4.91;60.56;102361.78;4915528;29;11630;-68
2021/10/20 00:10:24;;;;;;;;;45.67;41.00;;;;;4.83;61.53;102365.78;4932212;29;11683;-68
2021/10/20 00:13:19;;;;;;;;;36.75;35.50;;;;;4.74;62.32;102370.84;4933412;29;11630;-68
2021/10/20 00:16:16;;;;;;;;;47.33;42.67;;;;;4.73;61.99;102363.69;4922349;29;11603;-69
2021/10/20 00:19:12;;;;;;;;;40.25;37.25;;;;;4.57;63.10;102370.03;4916996;29;11586;-69
2021/10/20 00:22:07;;;;;;;;;35.25;33.00;;;;;4.57;63.43;102370.03;4927598;29;11612;-69
2021/10/20 00:25:04;;;;;;;;;39.00;33.50;;;;;4.54;63.87;102370.53;4914632;29;11701;-69
2021/10/20 00:27:33;;;;;;;;;24.50;23.75;;;;;4.64;63.90;102370.69;4918603;29;12441;-69
2021/10/20 00:30:29;;;;;;;;;24.00;24.00;;;;;4.56;64.32;102362.06;4934397;29;11592;-69
2021/10/20 00:33:24;;;;;;;;;23.50;23.50;;;;;4.60;64.66;102371.44;4934564;29;11589;-69
2021/10/20 00:36:20;;;;;;;;;27.25;27.00;;;;;4.56;64.79;102367.53;4921664;29;11621;-69
2021/10/20 00:39:16;;;;;;;;;25.75;25.75;;;;;4.47;64.59;102359.75;4921033;29;11675;-69
2021/10/20 00:41:58;;;;;;;;;22.00;20.50;;;;;4.66;63.99;102363.03;4934491;29;11617;-69
2021/10/20 00:44:58;;;;;;;;;32.33;32.00;;;;;4.45;64.50;102359.16;4934384;29;12521;-69
2021/10/20 00:47:54;;;;;;;;;32.00;28.25;;;;;4.49;64.20;102355.91;4933922;29;11569;-69
2021/10/20 00:50:22;;;;;;;;;26.75;26.75;;;;;4.41;64.21;102355.25;4935027;29;11604;-69
2021/10/20 00:53:18;;;;;;;;;35.67;34.00;;;;;4.40;64.66;102356.34;4933976;29;11592;-68
2021/10/20 00:56:13;;;;;;;;;27.25;27.25;;;;;4.51;64.04;102354.56;4936588;29;11635;-69
2021/10/20 00:59:09;;;;;;;;;32.75;29.75;;;;;4.30;65.07;102360.81;4937454;29;11684;-69
2021/10/20 01:02:05;;;;;;;;;25.75;24.00;;;;;4.35;65.39;102361.72;4930902;29;11684;-68
2021/10/20 01:05:02;;;;;;;;;29.75;29.75;;;;;4.26;65.57;102365.13;4937345;29;11696;-68
2021/10/20 01:07:30;;;;;;;;;39.00;32.00;;;;;4.30;64.95;102363.56;4938350;29;11603;-68
2021/10/20 01:10:26;;;;;;;;;30.25;30.25;;;;;4.30;64.86;102367.13;4915750;29;11617;-68
2021/10/20 01:13:22;;;;;;;;;34.25;30.00;;;;;4.26;65.04;102370.59;4937201;29;11740;-69
2021/10/20 01:16:20;;;;;;;;;29.00;29.00;;;;;4.21;65.22;102367.75;4937070;29;11628;-68
2021/10/20 01:19:01;;;;;;;;;28.00;26.25;;;;;3.94;66.58;102375.78;4931174;29;11597;-68
2021/10/20 01:21:57;;;;;;;;;33.00;33.00;;;;;4.04;67.01;102370.47;4936922;29;11592;-68
2021/10/20 01:24:53;;;;;;;;;34.67;32.00;;;;;4.04;66.47;102381.44;4937133;29;12356;-68
2021/10/20 01:27:49;;;;;;;;;27.67;27.33;;;;;4.06;66.25;102368.31;4936737;29;11619;-68
2021/10/20 01:30:45;;;;;;;;;35.00;29.33;;;;;3.90;66.88;102379.00;4936521;29;11595;-68
2021/10/20 01:33:40;;;;;;;;;42.33;37.33;;;;;4.05;66.68;102369.41;4936735;29;12510;-68
2021/10/20 01:36:36;;;;;;;;;41.67;40.67;;;;;3.76;66.85;102376.81;4936723;29;11605;-69
2021/10/20 01:39:25;;;;;;;;;36.67;36.67;;;;;3.77;66.90;102381.22;4937545;29;8857;-68
2021/10/20 01:42:21;;;;;;;;;47.33;43.67;;;;;3.79;66.85;102392.75;4936681;29;9702;-68
2021/10/20 01:45:16;;;;;;;;;56.67;47.67;;;;;3.96;65.80;102385.41;4925462;29;8845;-69
2021/10/20 01:47:44;;;;;;;;;43.33;42.33;;;;;3.75;66.64;102391.56;4937727;29;8857;-68
2021/10/20 01:50:25;;;;;;;;;63.67;49.67;;;;;3.61;66.59;102391.03;4937074;29;8861;-69
2021/10/20 01:52:57;;;;;;;;;46.33;43.00;;;;;3.69;66.20;102403.50;4937448;29;8845;-69
2021/10/20 01:55:52;;;;;;;;;48.00;44.67;;;;;3.51;66.65;102409.94;4923794;29;8849;-68
2021/10/20 01:58:48;;;;;;;;;57.00;48.33;;;;;3.68;65.95;102415.50;4936292;29;8841;-69
2021/10/20 02:01:44;;;;;;;;;46.33;43.67;;;;;3.46;66.89;102418.91;4936415;29;8873;-69
2021/10/20 02:04:39;;;;;;;;;65.00;55.33;;;;;3.47;66.90;102415.09;4923691;29;8833;-69
2021/10/20 02:07:30;;;;;;;;;66.00;53.33;;;;;3.50;66.70;102419.25;4936725;29;9642;-69
2021/10/20 02:10:26;;;;;;;;;70.00;55.00;;;;;3.45;66.33;102424.59;4935645;29;9759;-69
2021/10/20 02:13:22;;;;;;;;;61.33;51.67;;;;;3.45;66.42;102414.50;4936215;29;8837;-68
2021/10/20 02:16:05;;;;;;;;;66.00;55.00;;;;;3.37;66.38;102423.06;4936303;29;8873;-69
2021/10/20 02:19:01;;;;;;;;;62.67;54.00;;;;;3.25;67.19;102422.25;4936355;29;8841;-68
2021/10/20 02:21:58;;;;;;;;;64.67;55.00;;;;;3.05;67.91;102425.34;4936017;29;8845;-69
2021/10/20 02:24:54;;;;;;;;;60.33;51.33;;;;;3.31;66.47;102430.34;4924915;29;8863;-69
2021/10/20 02:27:35;;;;;;;;;60.00;50.33;;;;;3.27;66.98;102429.13;4936002;29;8865;-69
2021/10/20 02:30:31;;;;;;;;;67.33;56.00;;;;;3.19;66.93;102424.03;4935740;29;8908;-69
2021/10/20 02:33:27;;;;;;;;;71.00;59.33;;;;;3.21;66.95;102430.09;4923261;29;9642;-69
2021/10/20 02:36:22;;;;;;;;;73.67;58.00;;;;;3.13;67.29;102426.91;4935891;29;8884;-69
2021/10/20 02:38:50;;;;;;;;;65.00;55.33;;;;;3.18;67.34;102427.84;4933535;29;8852;-69
2021/10/20 02:41:45;;;;;;;;;73.33;51.67;;;;;3.06;67.61;102425.09;4926499;29;8987;-69
2021/10/20 02:44:41;;;;;;;;;63.67;53.00;;;;;3.04;67.74;102427.25;4935728;29;8830;-69
2021/10/20 02:47:37;;;;;;;;;66.67;56.00;;;;;3.13;66.96;102432.38;4935557;29;8943;-69
2021/10/20 02:50:32;;;;;;;;;71.00;60.00;;;;;3.10;67.35;102433.69;4935191;29;8923;-69
2021/10/20 02:53:28;;;;;;;;;87.67;64.67;;;;;2.90;67.26;102431.28;4922668;29;8932;-69
2021/10/20 02:56:24;;;;;;;;;95.67;68.67;;;;;2.90;67.42;102434.03;4935485;29;8971;-69
2021/10/20 02:59:20;;;;;;;;;109.25;89.00;;;;;2.83;68.29;102440.69;4935324;29;8841;-69
2021/10/20 03:02:15;;;;;;;;;113.25;92.75;;;;;2.90;67.49;102434.03;4922442;29;8920;-69
2021/10/20 03:05:11;;;;;;;;;112.25;92.50;;;;;2.84;67.28;102431.41;4935888;29;8892;-70
2021/10/20 03:07:39;;;;;;;;;104.50;84.00;;;;;2.97;66.86;102442.13;4936255;29;8951;-69
2021/10/20 03:10:34;;;;;;;;;122.25;100.75;;;;;2.88;67.06;102441.63;4934906;29;8861;-69
2021/10/20 03:13:30;;;;;;;;;157.75;108.50;;;;;3.00;67.13;102442.50;4934947;29;8891;-69
2021/10/20 03:16:25;;;;;;;;;126.50;103.25;;;;;2.98;66.89;102444.59;4935338;29;8960;-69
2021/10/20 03:19:21;;;;;;;;;156.75;124.25;;;;;2.88;67.82;102435.34;4934513;29;8936;-70
2021/10/20 03:22:17;;;;;;;;;153.00;109.00;;;;;2.91;67.80;102435.69;4935251;29;8849;-69
2021/10/20 03:25:13;;;;;;;;;141.75;110.75;;;;;2.85;68.50;102436.66;4922513;29;8845;-69
2021/10/20 03:28:08;;;;;;;;;140.50;108.00;;;;;2.76;68.26;102440.78;4934934;29;8841;-70
2021/10/20 03:31:04;;;;;;;;;113.25;96.75;;;;;2.81;68.02;102434.63;4934702;29;8884;-69
2021/10/20 03:33:59;;;;;;;;;101.25;79.25;;;;;2.73;68.14;102433.06;4935033;29;8864;-68
2021/10/20 03:36:55;;;;;;;;;101.75;75.25;;;;;2.80;68.20;102433.78;4922018;29;8884;-68
2021/10/20 03:39:51;;;;;;;;;99.00;73.25;;;;;2.83;68.05;102437.94;4921671;29;8899;-68
2021/10/20 03:42:46;;;;;;;;;85.67;68.33;;;;;3.01;67.37;102437.84;4934759;29;8935;-68
2021/10/20 03:45:42;;;;;;;;;95.00;67.67;;;;;3.19;66.06;102434.16;4934989;29;8841;-68
2021/10/20 03:48:38;;;;;;;;;88.00;66.67;;;;;3.05;66.42;102439.84;4922010;29;8853;-68
2021/10/20 03:51:34;;;;;;;;;83.67;66.33;;;;;2.81;67.03;102443.66;4922284;29;8844;-69
2021/10/20 03:54:29;;;;;;;;;82.67;65.67;;;;;2.65;68.25;102449.81;4922343;29;9032;-68
2021/10/20 03:57:25;;;;;;;;;83.67;64.00;;;;;2.55;68.26;102449.56;4934856;29;8891;-69
2021/10/20 04:00:20;;;;;;;;;87.67;67.00;;;;;2.71;67.52;102451.59;4934325;29;8853;-69
2021/10/20 04:03:16;;;;;;;;;80.67;64.00;;;;;2.62;67.93;102453.84;4934623;29;8869;-69
2021/10/20 04:06:11;;;;;;;;;84.00;60.33;;;;;2.76;67.47;102455.31;4934274;29;8936;-69
2021/10/20 04:09:07;;;;;;;;;86.00;66.67;;;;;2.65;67.68;102453.38;4923836;29;8860;-70
2021/10/20 04:12:03;;;;;;;;;78.00;62.67;;;;;2.59;68.12;102457.03;4934171;29;8857;-69
2021/10/20 04:14:59;;;;;;;;;78.00;61.33;;;;;2.61;68.34;102456.81;4919764;29;8849;-68
2021/10/20 04:17:54;;;;;;;;;77.00;62.00;;;;;2.68;67.77;102465.72;4915537;29;8906;-69
2021/10/20 04:20:50;;;;;;;;;81.67;65.33;;;;;2.71;67.55;102466.09;4915265;29;8855;-70
2021/10/20 04:23:45;;;;;;;;;79.00;64.67;;;;;2.79;67.60;102471.22;4902949;29;9534;-69
2021/10/20 04:26:41;;;;;;;;;58.33;46.33;;;;;2.79;67.13;102478.59;4934459;29;8865;-69
2021/10/20 04:29:37;;;;;;;;;83.33;67.33;;;;;2.74;67.22;102479.28;4928666;29;8863;-68
2021/10/20 04:32:33;;;;;;;;;91.00;70.00;;;;;2.75;68.11;102480.94;4927368;29;8912;-69
2021/10/20 04:35:01;;;;;;;;;90.25;71.75;;;;;2.61;68.46;102487.72;4939104;29;9698;-69
2021/10/20 04:37:57;;;;;;;;;86.33;70.33;;;;;2.68;68.55;102484.84;4937847;29;8891;-69
2021/10/20 04:40:52;;;;;;;;;84.33;66.00;;;;;2.84;67.49;102491.53;4937802;29;8853;-68
2021/10/20 04:43:48;;;;;;;;;94.75;76.00;;;;;2.91;66.89;102498.56;4927345;29;9036;-68
2021/10/20 04:46:43;;;;;;;;;88.67;71.67;;;;;2.96;66.95;102512.34;4931137;29;8837;-69
2021/10/20 04:49:39;;;;;;;;;85.00;68.33;;;;;3.06;66.83;102515.31;4937837;29;8837;-68
2021/10/20 04:52:32;;;;;;;;;61.67;51.67;;;;;2.99;66.98;102509.16;4938827;29;8880;-69
2021/10/20 04:55:28;;;;;;;;;88.67;70.33;;;;;3.02;67.31;102511.41;4936164;29;8953;-68
2021/10/20 04:57:56;;;;;;;;;88.33;65.00;;;;;3.08;66.98;102515.13;4920333;29;8861;-69
2021/10/20 05:00:52;;;;;;;;;88.67;67.67;;;;;3.10;67.09;102512.13;4938317;29;8891;-69
2021/10/20 05:03:47;;;;;;;;;86.33;68.00;;;;;3.26;67.18;102527.84;4919188;29;8851;-69
2021/10/20 05:06:43;;;;;;;;;83.00;67.00;;;;;3.42;66.18;102527.13;4931885;29;8868;-70
2021/10/20 05:09:38;;;;;;;;;104.25;76.25;;;;;3.47;67.06;102530.00;4936365;29;8821;-69
2021/10/20 05:12:34;;;;;;;;;95.25;76.75;;;;;3.51;67.14;102527.59;4935958;29;8864;-70
2021/10/20 05:15:30;;;;;;;;;100.00;76.00;;;;;3.59;67.01;102539.00;4935665;29;8868;-69
2021/10/20 05:18:25;;;;;;;;;109.25;88.75;;;;;3.64;66.85;102541.03;4918109;29;9006;-69
2021/10/20 05:21:21;;;;;;;;;119.50;90.00;;;;;3.74;67.33;102554.09;4917065;29;8821;-69
2021/10/20 05:23:50;;;;;;;;;137.75;104.50;;;;;3.90;67.29;102548.72;4920571;29;8872;-69
2021/10/20 05:26:33;;;;;;;;;110.00;96.75;;;;;4.02;66.81;102556.09;4936577;29;8873;-70
2021/10/20 05:29:01;;;;;;;;;115.00;94.75;;;;;4.19;66.54;102559.72;4937651;29;8865;-70
2021/10/20 05:31:29;;;;;;;;;147.75;118.50;;;;;4.33;66.16;102565.78;4938128;29;8883;-69
2021/10/20 05:33:57;;;;;;;;;137.75;116.25;;;;;4.51;65.92;102564.75;4937893;29;8879;-69
2021/10/20 05:36:25;;;;;;;;;156.00;125.50;;;;;4.66;65.25;102578.75;4937792;29;9690;-69
2021/10/20 05:38:53;;;;;;;;;188.75;140.75;;;;;4.71;65.05;102579.66;4920703;29;8840;-70
2021/10/20 05:41:21;;;;;;;;;170.00;134.00;;;;;5.01;64.70;102575.81;4936935;29;8933;-70
2021/10/20 05:43:49;;;;;;;;;269.50;195.75;;;;;5.09;64.44;102586.38;4937681;29;8876;-69
2021/10/20 05:46:16;;;;;;;;;267.00;205.00;;;;;5.28;63.98;102585.06;4937769;29;8869;-69
2021/10/20 05:48:44;;;;;;;;;251.50;184.00;;;;;5.35;63.76;102578.56;4937738;29;8931;-69
2021/10/20 05:51:12;;;;;;;;;256.00;192.50;;;;;5.33;63.74;102584.31;4921133;29;8869;-69
2021/10/20 05:53:40;;;;;;;;;199.75;156.25;;;;;5.55;63.51;102585.22;4920287;29;8865;-69
2021/10/20 05:56:08;;;;;;;;;175.25;138.00;;;;;5.67;63.31;102593.34;4937355;29;8950;-70
2021/10/20 05:58:36;;;;;;;;;184.75;144.25;;;;;5.77;63.03;102598.19;4920614;29;8899;-69
2021/10/20 06:01:03;;;;;;;;;155.75;121.25;;;;;5.96;63.03;102598.75;4920493;29;8857;-69
2021/10/20 06:03:31;;;;;;;;;148.50;127.00;;;;;6.05;62.92;102603.53;4920676;29;8853;-71
2021/10/20 06:06:00;;;;;;;;;136.75;117.00;;;;;6.20;62.17;102600.16;4920693;29;8944;-70
2021/10/20 06:08:28;;;;;;;;;141.25;114.50;;;;;6.31;61.85;102601.13;4936120;29;8953;-70
2021/10/20 06:10:55;;;;;;;;;138.75;121.50;;;;;6.46;61.43;102595.00;4937092;29;8928;-70
2021/10/20 06:13:23;;;;;;;;;142.00;126.25;;;;;6.63;61.05;102599.31;4937402;29;8849;-70
2021/10/20 06:16:05;;;;;;;;;154.75;127.50;;;;;6.78;61.26;102603.31;4922330;29;8853;-71
2021/10/20 06:18:33;;;;;;;;;150.75;120.25;;;;;6.92;60.38;102604.59;4936730;29;8888;-70
2021/10/20 06:21:02;;;;;;;;;156.00;122.75;;;;;7.05;60.21;102603.31;4936922;29;8896;-70
2021/10/20 06:23:31;;;;;;;;;134.00;106.33;;;;;7.35;59.40;102613.75;4937005;29;8857;-71
2021/10/20 06:25:59;;;;;;;;;136.50;97.75;;;;;7.55;58.96;102611.19;4936940;29;8924;-70
2021/10/20 06:28:27;;;;;;;;;136.00;112.33;;;;;7.62;58.41;102611.78;4936930;29;8892;-71
2021/10/20 06:30:56;;;;;;;;;111.67;89.67;;;;;7.88;58.18;102603.69;4929241;29;8853;-71
2021/10/20 06:33:24;;;;;;;;;129.00;110.00;;;;;8.12;57.37;102620.63;4936928;29;8955;-71
2021/10/20 06:35:54;;;;;;;;;131.67;103.33;;;;;8.15;56.97;102634.72;4936731;29;8865;-71
2021/10/20 06:38:23;;;;;;;;;129.00;100.33;;;;;8.39;56.92;102637.91;4936911;29;8927;-70
2021/10/20 06:40:53;;;;;;;;;119.00;96.67;;;;;8.50;56.44;102638.78;4936170;29;9733;-70
2021/10/20 06:43:21;;;;;;;;;114.00;90.67;;;;;8.86;55.54;102642.50;4919299;29;8869;-73
2021/10/20 06:45:50;;;;;;;;;110.00;97.00;;;;;8.99;55.25;102627.34;4919590;29;8936;-72
2021/10/20 06:48:18;;;;;;;;;110.33;90.00;;;;;9.09;55.31;102627.34;4935656;29;8889;-70
2021/10/20 06:50:45;;;;;;;;;97.00;79.33;;;;;9.32;54.83;102614.97;4936473;29;8857;-70
2021/10/20 06:53:13;;;;;;;;;107.67;88.67;;;;;9.47;54.01;102632.34;4936596;29;8887;-71
2021/10/20 06:55:41;;;;;;;;;32.67;32.67;;;;;9.62;53.72;102617.72;4919813;29;8857;-70
2021/10/20 06:58:09;;;;;;;;;86.33;71.67;;;;;9.72;53.35;102625.97;4936059;29;8848;-70
2021/10/20 07:00:37;;;;;;;;;91.33;76.00;;;;;9.96;52.37;102622.63;4919422;29;11672;-72
2021/10/20 07:03:05;;;;;;;;;95.33;76.33;;;;;10.08;52.01;102631.44;4936283;29;8971;-73
2021/10/20 07:05:34;;;;;;;;;90.00;70.00;;;;;10.34;51.34;102632.22;4936369;29;8895;-70
2021/10/20 07:08:02;;;;;;;;;65.00;52.25;;;;;10.67;50.36;102629.88;4919230;29;11641;-71
2021/10/20 07:10:30;;;;;;;;;63.25;49.50;;;;;10.63;50.26;102628.78;4936191;29;11605;-71
2021/10/20 07:12:58;;;;;;;;;64.25;51.00;;;;;10.83;49.71;102629.53;4935921;29;11649;-72
2021/10/20 07:15:26;;;;;;;;;70.00;50.75;;;;;11.03;49.16;102622.19;4919359;29;11629;-70
2021/10/20 07:17:54;;;;;;;;;72.25;52.25;;;;;11.16;48.75;102618.78;4928126;29;11604;-72
2021/10/20 07:20:22;;;;;;;;;73.25;58.25;;;;;11.36;47.90;102624.19;4934414;29;11612;-72
2021/10/20 07:22:50;;;;;;;;;70.75;53.50;;;;;11.50;48.24;102617.94;4935763;29;11639;-72
2021/10/20 07:25:18;;;;;;;;;67.00;53.25;;;;;11.52;47.84;102608.25;4936033;29;11612;-72
2021/10/20 07:27:47;;;;;;;;;84.25;61.75;;;;;11.57;47.48;102615.66;4935544;29;11594;-72
2021/10/20 07:30:16;;;;;;;;;77.75;60.75;;;;;11.79;47.58;102613.25;4935498;29;11629;-72
2021/10/20 07:32:44;;;;;;;;;78.00;60.00;;;;;11.95;46.45;102622.25;4918718;29;11641;-72
2021/10/20 07:35:16;;;;;;;;;91.00;69.75;;;;;12.02;46.48;102630.25;4918600;29;11632;-72
2021/10/20 07:37:44;;;;;;;;;91.00;67.25;;;;;12.07;45.96;102627.41;4935832;29;11686;-72
2021/10/20 07:40:14;;;;;;;;;95.25;77.00;;;;;12.42;45.57;102635.34;4918500;29;11656;-71
2021/10/20 07:42:44;;;;;;;;;106.75;81.25;;;;;12.75;44.84;102627.97;4919149;29;11631;-72
2021/10/20 07:45:19;;;;;;;;;90.25;68.50;;;;;12.51;45.12;102632.72;4919081;29;11669;-72
2021/10/20 07:47:49;;;;;;;;;86.25;68.25;;;;;12.57;45.20;102631.50;4935622;29;11750;-72
2021/10/20 07:50:19;;;;;;;;;72.25;56.25;;;;;12.79;43.75;102619.84;4935341;29;11675;-71
2021/10/20 07:52:48;;;;;;;;;76.75;59.25;;;;;12.81;43.92;102631.50;4935499;29;12255;-71
2021/10/20 07:55:18;;;;;;;;;80.00;61.00;;;;;12.96;43.68;102625.72;4935533;29;11610;-72
2021/10/20 07:57:55;;;;;;;;;78.25;57.75;;;;;13.21;42.43;102615.38;4935346;29;11637;-72
2021/10/20 08:00:24;;;;;;;;;81.25;61.00;;;;;13.08;43.37;102626.09;4935164;29;11673;-71
2021/10/20 08:02:52;;;;;;;;;78.00;60.00;;;;;13.13;42.91;102622.41;4935367;29;11619;-73
2021/10/20 08:05:21;;;;;;;;;86.50;67.00;;;;;13.22;43.82;102622.59;4938448;29;11696;-75
2021/10/20 08:07:51;;;;;;;;;63.00;49.25;;;;;13.60;43.56;102626.94;4923092;29;11636;-75
2021/10/20 08:10:28;;;;;;;;;83.00;59.75;;;;;13.53;43.10;102622.91;4939333;29;11614;-75
2021/10/20 08:12:58;;;;;;;;;84.50;67.50;;;;;13.75;42.99;102619.47;4939150;29;11627;-76
2021/10/20 08:15:26;;;;;;;;;33.75;28.50;;;;;13.98;42.45;102610.13;4939322;29;11639;-75
2021/10/20 08:18:03;;;;;;;;;80.75;59.25;;;;;13.57;42.12;102622.00;4939024;29;11605;-74
2021/10/20 08:20:34;;;;;;;;;79.00;58.75;;;;;13.74;42.21;102609.47;4939032;29;11638;-73
2021/10/20 08:23:04;;;;;;;;;73.50;52.25;;;;;14.04;41.57;102617.25;4938889;29;11601;-75
2021/10/20 08:25:36;;;;;;;;;70.25;57.00;;;;;14.25;41.81;102614.88;4922457;29;12398;-73
2021/10/20 08:28:05;;;;;;;;;72.00;57.25;;;;;14.15;41.37;102618.69;4938833;29;11610;-74
2021/10/20 08:30:35;;;;;;;;;56.25;46.25;;;;;14.29;40.84;102617.88;4938971;29;11566;-75
2021/10/20 08:33:04;;;;;;;;;74.50;56.25;;;;;14.48;40.79;102612.22;4921772;29;11579;-74
2021/10/20 08:35:31;;;;;;;;;72.00;53.75;;;;;14.33;40.76;102604.97;4938966;29;11555;-73
2021/10/20 08:38:05;;;;;;;;;65.75;51.00;;;;;14.57;40.53;102600.06;4921948;29;11575;-75
2021/10/20 08:40:37;;;;;;;;;62.00;50.00;;;;;14.71;39.79;102600.81;4921883;29;11549;-73
2021/10/20 08:43:05;;;;;;;;;55.00;43.75;;;;;15.06;40.04;102595.59;4921996;29;11576;-73
2021/10/20 08:45:33;;;;;;;;;56.75;46.00;;;;;15.11;39.45;102601.03;4921539;29;11194;-71
2021/10/20 08:48:01;;;;;;;;;44.75;39.25;;;;;15.11;38.61;102601.03;4921502;29;11148;-73
2021/10/20 08:50:33;;;;;;;;;33.75;33.00;;;;;15.53;37.63;102605.28;4938533;29;10552;-73
2021/10/20 08:53:02;;;;;;;;;22.00;20.25;;;;;15.52;37.30;102591.66;4938682;29;10241;-73
2021/10/20 08:55:31;;;;;;;;;0.00;0.00;;;;;15.41;36.72;102591.09;4938922;29;9952;-71
2021/10/20 08:58:07;;;;;;;;;10.33;10.33;;;;;15.57;35.92;102591.53;4922756;29;9611;-70
2021/10/20 09:00:35;;;;;;;;;8.00;8.00;;;;;15.80;36.34;102595.97;4938256;29;9296;-70
2021/10/20 09:03:03;;;;;;;;;11.33;11.33;;;;;15.80;35.62;102584.78;4937360;29;9261;-71
2021/10/20 09:05:31;;;;;;;;;16.33;15.67;;;;;16.00;35.87;102582.56;4938295;29;10071;-71
2021/10/20 09:07:59;;;;;;;;;10.00;10.00;;;;;16.30;34.68;102584.47;4921535;29;9483;-72
2021/10/20 09:10:29;;;;;;;;;15.00;14.00;;;;;16.18;33.50;102577.88;4938109;29;9080;-71
2021/10/20 09:12:59;;;;;;;;;6.00;6.00;;;;;16.76;33.21;102571.94;4938234;29;9109;-71
2021/10/20 09:15:36;;;;;;;;;9.00;8.50;;;;;16.24;33.20;102571.81;4920734;29;9774;-70
2021/10/20 09:18:07;;;;;;;;;8.25;8.25;;;;;16.02;33.66;102569.09;4920143;29;8861;-69
2021/10/20 09:21:05;;;;;;;;;5.25;5.25;;;;;15.92;33.95;102561.84;4932394;29;8881;-69
2021/10/20 09:24:10;;;;;;;;;6.33;6.33;;;;;16.38;32.45;102552.97;4935124;29;9613;-69
2021/10/20 09:27:27;;;;;;;;;7.00;7.00;;;;;16.60;32.34;102556.78;4933606;29;9116;-69
2021/10/20 09:30:26;;;;;;;;;5.25;5.25;;;;;16.44;33.00;102548.06;4936393;29;8849;-69
2021/10/20 09:33:23;;;;;;;;;11.00;9.25;;;;;16.91;33.34;102546.31;4936849;29;8865;-69
2021/10/20 09:36:22;;;;;;;;;7.00;7.00;;;;;16.95;32.30;102540.91;4936493;29;8877;-69
2021/10/20 09:39:17;;;;;;;;;8.50;8.50;;;;;16.78;32.16;102538.09;4936192;29;9075;-70
2021/10/20 09:42:16;;;;;;;;;7.00;7.00;;;;;16.98;32.60;102542.19;4936953;28;8851;-68
2021/10/20 09:45:34;;;;;;;;;9.75;9.25;;;;;16.96;32.63;102536.94;4917365;29;8882;-69
2021/10/20 09:48:30;;;;;;;;;6.75;6.75;;;;;17.18;32.39;102536.75;4930714;29;8973;-68
2021/10/20 09:51:25;;;;;;;;;7.00;7.00;;;;;16.70;32.08;102536.94;4924197;29;8947;-69
2021/10/20 09:54:47;;;;;;;;;11.00;11.00;;;;;17.11;32.33;102522.47;4936697;29;8986;-69
2021/10/20 09:57:43;;;;;;;;;9.75;8.50;;;;;17.23;31.75;102521.75;4936663;29;8951;-69
2021/10/20 10:00:40;;;;;;;;;8.25;8.25;;;;;16.72;32.24;102517.06;4935312;29;8891;-68
2021/10/20 10:03:36;;;;;;;;;8.50;8.50;;;;;16.88;32.40;102518.22;4936456;29;8869;-69
2021/10/20 10:06:34;;;;;;;;;5.75;5.75;;;;;17.60;31.15;102513.78;4937907;29;8960;-70
2021/10/20 10:09:31;;;;;;;;;6.00;5.75;;;;;17.45;31.31;102524.34;4937826;29;8856;-69
2021/10/20 10:12:27;;;;;;;;;6.25;6.25;;;;;18.10;29.84;102527.91;4935924;29;8841;-69
2021/10/20 10:15:09;;;;;;;;;20.75;19.75;;;;;17.35;33.79;102527.50;4930082;29;8857;-70
2021/10/20 10:18:07;;;;;;;;;22.33;22.33;;;;;17.69;32.80;102526.56;4935495;29;8865;-70
2021/10/20 10:21:28;;;;;;;;;30.67;30.67;;;;;17.54;34.18;102529.91;4937465;29;9217;-71
2021/10/20 10:24:34;;;;;;;;;30.00;30.00;;;;;17.09;33.99;102518.34;4936101;29;9441;-68
2021/10/20 10:27:29;;;;;;;;;23.00;23.00;;;;;17.03;34.88;102522.47;4935800;29;9259;-68
2021/10/20 10:30:26;;;;;;;;;22.00;21.67;;;;;16.85;35.19;102519.69;4936740;29;9351;-69
2021/10/20 10:33:27;;;;;;;;;26.67;25.67;;;;;17.43;34.64;102526.66;4929892;29;9452;-69
2021/10/20 10:36:24;;;;;;;;;23.25;22.50;;;;;17.51;34.31;102522.19;4930620;29;9424;-70
2021/10/20 10:38:59;;;;;;;;;21.67;21.67;;;;;17.72;33.79;102513.94;4929548;29;9461;-69
2021/10/20 10:42:00;;;;;;;;;32.00;29.33;;;;;17.54;34.05;102501.13;4928636;29;9090;-69
2021/10/20 10:44:43;;;;;;;;;34.00;33.00;;;;;17.17;35.33;102509.94;4936428;29;9632;-69
2021/10/20 10:47:23;;;;;;;;;25.00;24.33;;;;;16.98;35.87;102508.66;4920266;29;10246;-70
2021/10/20 10:50:18;;;;;;;;;21.67;21.00;;;;;16.78;35.72;102507.34;4934983;29;9181;-71
2021/10/20 10:52:55;;;;;;;;;28.75;28.50;;;;;16.30;36.03;102505.47;4940284;28;9355;-70
2021/10/20 10:55:36;;;;;;;;;29.25;28.50;;;;;15.04;38.51;102500.34;4954018;28;9467;-70
2021/10/20 10:59:06;;;;;;;;;25.00;25.00;;;;;16.38;36.63;102502.69;4936571;29;9727;-70
2021/10/20 11:02:01;;;;;;;;;20.00;20.00;;;;;16.46;36.55;102492.69;4935124;29;9716;-70
2021/10/20 11:05:02;;;;;;;;;17.33;17.33;;;;;17.07;35.33;102498.28;4922393;29;9696;-71
2021/10/20 11:07:45;;;;;;;;;24.00;23.00;;;;;17.11;34.91;102491.72;4936183;29;9502;-70
2021/10/20 11:10:42;;;;;;;;;21.67;21.33;;;;;17.49;34.80;102474.16;4935324;29;9461;-70
2021/10/20 11:13:19;;;;;;;;;21.00;21.00;;;;;17.05;34.24;102484.66;4929937;29;9269;-69
2021/10/20 11:15:48;;;;;;;;;19.67;19.67;;;;;17.27;34.08;102469.63;4918939;29;9330;-69
2021/10/20 11:18:50;;;;;;;;;18.00;17.00;;;;;17.40;33.84;102467.75;4933649;29;9352;-70
2021/10/20 11:21:46;;;;;;;;;15.50;15.50;;;;;17.73;33.57;102470.78;4934917;29;9104;-70
2021/10/20 11:24:43;;;;;;;;;20.50;16.75;;;;;16.98;34.70;102464.75;4934346;29;8857;-70
2021/10/20 11:27:14;;;;;;;;;17.25;17.25;;;;;17.60;34.52;102452.22;4915674;29;8867;-70
2021/10/20 11:30:09;;;;;;;;;6.67;6.67;;;;;17.97;33.80;102458.97;4932262;29;8910;-70
2021/10/20 11:32:37;;;;;;;;;21.33;21.33;;;;;18.02;33.76;102456.81;4928020;29;9419;-71
2021/10/20 11:35:06;;;;;;;;;16.75;16.75;;;;;18.41;33.39;102463.13;4935860;29;8954;-70
2021/10/20 11:37:35;;;;;;;;;16.50;16.50;;;;;18.36;32.91;102454.91;4917403;29;9674;-71
2021/10/20 11:40:04;;;;;;;;;21.50;21.00;;;;;17.97;33.96;102451.41;4916591;29;8862;-71
2021/10/20 11:43:00;;;;;;;;;19.75;19.75;;;;;18.20;33.94;102456.69;4933360;29;8895;-70
2021/10/20 11:45:43;;;;;;;;;10.75;10.75;;;;;17.74;34.26;102445.28;4935272;29;8869;-70
2021/10/20 11:48:29;;;;;;;;;11.75;11.75;;;;;17.61;34.50;102440.69;4934916;29;8928;-71
2021/10/20 11:51:25;;;;;;;;;12.00;12.00;;;;;17.78;34.40;102442.59;4933635;29;8863;-71
2021/10/20 11:53:52;;;;;;;;;11.00;11.00;;;;;17.97;33.37;102448.59;4918736;29;8856;-71
2021/10/20 11:56:53;;;;;;;;;14.00;11.75;;;;;17.72;34.40;102438.38;4933805;29;8873;-70
2021/10/20 11:59:48;;;;;;;;;10.00;10.00;;;;;18.25;33.82;102453.69;4934586;29;8865;-71
2021/10/20 12:02:44;;;;;;;;;10.00;10.00;;;;;18.37;33.57;102433.31;4936042;29;9584;-69
2021/10/20 12:05:11;;;;;;;;;12.00;11.00;;;;;18.25;33.68;102437.69;4935849;29;8845;-69
2021/10/20 12:08:07;;;;;;;;;10.00;10.00;;;;;18.31;33.43;102441.91;4927805;29;9698;-69
2021/10/20 12:11:03;;;;;;;;;11.50;11.50;;;;;18.18;33.88;102440.22;4925396;29;8829;-69
2021/10/20 12:14:07;;;;;;;;;10.25;10.25;;;;;17.90;33.64;102444.69;4932193;29;9643;-70
2021/10/20 12:17:06;;;;;;;;;21.50;12.75;;;;;17.67;33.51;102442.16;4914163;29;8833;-70
2021/10/20 12:19:38;;;;;;;;;18.25;16.00;;;;;18.18;32.80;102443.03;4918125;29;8849;-70
2021/10/20 12:22:37;;;;;;;;;6.25;6.25;;;;;18.04;31.64;102442.47;4933448;29;8857;-70
2021/10/20 12:25:36;;;;;;;;;5.25;5.25;;;;;18.27;30.95;102440.16;4934296;29;8849;-70
2021/10/20 12:28:32;;;;;;;;;29.50;21.50;;;;;18.06;32.20;102442.94;4934097;29;8991;-70
2021/10/20 12:31:28;;;;;;;;;7.75;7.75;;;;;17.81;32.32;102444.75;4934332;29;8829;-70
2021/10/20 12:34:27;;;;;;;;;4.25;4.25;;;;;17.75;32.44;102438.50;4934427;29;9622;-70
2021/10/20 12:37:34;;;;;;;;;6.50;6.50;;;;;17.74;32.04;102436.06;4934442;29;8899;-70
2021/10/20 12:40:30;;;;;;;;;5.75;5.75;;;;;17.91;32.23;102438.75;4920706;29;8853;-71